Time;durP1;ratioP1;P1;durP2;ratioP2;P2;SDS_P1;SDS_P2;PMS_P1;PMS_P2;Temp;Humidity;BMP_temperature;BMP_pressure;BME280_temperature;BME280_humidity;BME280_pressure;Samples;Min_cycle;Max_cycle;Signal;HPM_P1;HPM_P2
2022/04/09 00:01:38;;;;;;;4.13;2.25;;;5.40;90.60;;;;;;5063317;28;20496;-66
2022/04/09 00:04:04;;;;;;;4.57;2.20;;;5.40;90.60;;;;;;5060067;28;20028;-66
2022/04/09 00:06:30;;;;;;;6.53;2.22;;;5.40;90.60;;;;;;5057785;28;20037;-67
2022/04/09 00:08:56;;;;;;;6.00;2.10;;;5.40;90.60;;;;;;5055939;28;20097;-67
2022/04/09 00:11:21;;;;;;;3.58;2.00;;;5.40;90.60;;;;;;5057401;28;20028;-66
2022/04/09 00:13:47;;;;;;;4.10;2.10;;;5.40;90.50;;;;;;5057353;28;20464;-66
2022/04/09 00:16:13;;;;;;;4.85;2.00;;;5.40;90.50;;;;;;5058754;28;20060;-66
2022/04/09 00:18:43;;;;;;;4.25;2.08;;;5.40;90.50;;;;;;5058936;28;20076;-66
2022/04/09 00:21:09;;;;;;;4.68;2.13;;;5.40;90.40;;;;;;5058871;28;20040;-69
2022/04/09 00:23:34;;;;;;;3.55;1.80;;;5.40;90.40;;;;;;5053484;28;20440;-69
2022/04/09 00:26:00;;;;;;;2.83;1.60;;;5.40;90.40;;;;;;5053503;28;20032;-69
2022/04/09 00:28:26;;;;;;;7.72;1.88;;;5.40;90.40;;;;;;5053724;28;20060;-68
2022/04/09 00:30:52;;;;;;;2.67;1.50;;;5.40;90.70;;;;;;5056255;28;20039;-69
2022/04/09 00:33:18;;;;;;;2.28;1.70;;;5.40;90.30;;;;;;5057695;28;20033;-65
2022/04/09 00:35:44;;;;;;;4.57;1.67;;;5.40;90.40;;;;;;5059326;28;20024;-67
2022/04/09 00:38:10;;;;;;;3.22;1.80;;;5.40;90.80;;;;;;5041366;28;20511;-66
2022/04/09 00:40:37;;;;;;;6.22;2.05;;;5.40;90.40;;;;;;5053930;28;20126;-67
2022/04/09 00:43:03;;;;;;;3.53;1.60;;;5.40;90.30;;;;;;5056202;28;20032;-69
2022/04/09 00:45:29;;;;;;;6.85;1.63;;;5.40;90.30;;;;;;5026515;28;20139;-67
2022/04/09 00:47:56;;;;;;;2.75;1.88;;;5.40;90.40;;;;;;5056981;28;20045;-66
2022/04/09 00:50:21;;;;;;;3.83;2.28;;;5.40;90.20;;;;;;5039519;28;20552;-65
2022/04/09 00:52:55;;;;;;;2.05;1.70;;;5.40;90.20;;;;;;5040705;28;20028;-66
2022/04/09 00:56:13;;;;;;;4.07;1.75;;;5.40;90.20;;;;;;5061061;28;20029;-66
2022/04/09 00:58:14;;;;;;;2.83;1.55;;;5.40;90.30;;;;;;5037250;28;20590;-69
2022/04/09 01:00:41;;;;;;;2.38;1.60;;;5.40;90.40;;;;;;5038862;28;20036;-69
2022/04/09 01:03:11;;;;;;;4.68;1.60;;;5.30;90.40;;;;;;5055020;28;20028;-66
2022/04/09 01:05:38;;;;;;;3.72;1.45;;;5.30;90.50;;;;;;5057447;28;20025;-66
2022/04/09 01:08:05;;;;;;;1.98;1.65;;;5.30;90.40;;;;;;5041293;28;20024;-66
2022/04/09 01:10:32;;;;;;;2.53;1.52;;;5.30;90.30;;;;;;5056405;28;20139;-68
2022/04/09 01:12:59;;;;;;;2.28;1.63;;;5.30;90.30;;;;;;5039766;28;20131;-68
2022/04/09 01:15:25;;;;;;;4.50;1.63;;;5.20;90.40;;;;;;5058563;28;20498;-68
2022/04/09 01:17:51;;;;;;;4.95;2.33;;;5.20;90.40;;;;;;5036685;28;20025;-69
2022/04/09 01:20:29;;;;;;;1.95;1.65;;;5.20;90.50;;;;;;5042573;28;20552;-68
2022/04/09 01:22:55;;;;;;;2.40;1.63;;;5.20;90.60;;;;;;5039336;28;20033;-67
2022/04/09 01:25:22;;;;;;;6.05;1.83;;;5.20;90.70;;;;;;5043574;28;20032;-66
2022/04/09 01:27:51;;;;;;;3.85;1.70;;;5.20;90.70;;;;;;5039392;28;20408;-66
2022/04/09 01:30:17;;;;;;;3.75;1.92;;;5.20;90.60;;;;;;5044112;28;20028;-69
2022/04/09 01:32:44;;;;;;;2.30;1.42;;;5.10;90.60;;;;;;5044811;28;20401;-69
2022/04/09 01:35:11;;;;;;;2.85;1.77;;;5.10;90.70;;;;;;5043917;28;20722;-69
2022/04/09 01:37:36;;;;;;;4.28;1.65;;;5.10;90.80;;;;;;5045270;28;20090;-70
2022/04/09 01:40:02;;;;;;;6.13;1.98;;;5.10;90.90;;;;;;5044129;28;20036;-69
2022/04/09 01:42:29;;;;;;;6.55;1.65;;;5.10;90.80;;;;;;5056602;28;20028;-69
2022/04/09 01:44:57;;;;;;;3.00;1.90;;;5.10;90.90;;;;;;5043389;28;20041;-69
2022/04/09 01:47:24;;;;;;;2.25;1.45;;;5.10;90.90;;;;;;5038790;28;20028;-66
2022/04/09 01:49:50;;;;;;;7.22;3.58;;;5.10;90.80;;;;;;5043898;28;20696;-68
2022/04/09 01:52:16;;;;;;;5.72;1.90;;;5.10;90.90;;;;;;5044585;28;20032;-68
2022/04/09 01:54:41;;;;;;;6.40;1.60;;;5.10;90.90;;;;;;5045134;28;20030;-68
2022/04/09 01:57:07;;;;;;;1.67;1.58;;;5.10;91.00;;;;;;5058146;28;20051;-67
2022/04/09 01:59:33;;;;;;;5.28;1.70;;;5.10;90.80;;;;;;5038055;28;20042;-68
2022/04/09 02:02:00;;;;;;;7.68;1.70;;;5.10;90.80;;;;;;5038701;28;20102;-69
2022/04/09 02:04:27;;;;;;;4.00;1.58;;;5.10;90.80;;;;;;5040670;28;20129;-67
2022/04/09 02:06:54;;;;;;;3.75;1.42;;;5.10;90.80;;;;;;5041895;28;20070;-68
2022/04/09 02:09:21;;;;;;;6.93;1.63;;;5.10;90.90;;;;;;5043383;28;20052;-68
2022/04/09 02:11:47;;;;;;;4.72;2.35;;;5.10;90.90;;;;;;5043834;28;20733;-68
2022/04/09 02:14:14;;;;;;;4.50;1.70;;;5.10;90.90;;;;;;5038775;28;20041;-68
2022/04/09 02:16:41;;;;;;;4.75;1.95;;;5.10;90.90;;;;;;5038447;28;20039;-68
2022/04/09 02:19:08;;;;;;;6.95;1.90;;;5.00;90.80;;;;;;5035982;28;20064;-69
2022/04/09 02:21:34;;;;;;;3.33;1.70;;;5.10;90.90;;;;;;5041129;28;20091;-68
2022/04/09 02:24:00;;;;;;;4.45;1.67;;;5.10;90.90;;;;;;5059783;28;20672;-68
2022/04/09 02:26:26;;;;;;;4.55;1.80;;;5.00;90.90;;;;;;5045721;28;20059;-68
2022/04/09 02:28:53;;;;;;;4.15;1.48;;;5.00;91.00;;;;;;5039937;28;20492;-68
2022/04/09 02:31:22;;;;;;;6.95;1.80;;;5.00;90.90;;;;;;5043193;28;20106;-68
2022/04/09 02:33:48;;;;;;;5.85;1.80;;;4.90;90.90;;;;;;5060871;28;20024;-69
2022/04/09 02:36:15;;;;;;;4.82;1.75;;;4.90;91.10;;;;;;5042294;28;20081;-69
2022/04/09 02:38:43;;;;;;;5.10;1.90;;;4.80;91.20;;;;;;5039681;28;20017;-68
2022/04/09 02:41:09;;;;;;;3.47;1.75;;;4.80;91.30;;;;;;5040328;28;20544;-68
2022/04/09 02:43:43;;;;;;;4.32;1.90;;;4.80;91.30;;;;;;5042161;28;20494;-68
2022/04/09 02:46:09;;;;;;;6.00;1.70;;;4.80;91.20;;;;;;5057079;28;20443;-68
2022/04/09 02:48:38;;;;;;;2.83;1.73;;;4.70;91.20;;;;;;5043378;28;20029;-69
2022/04/09 02:51:04;;;;;;;6.32;1.90;;;4.70;91.40;;;;;;5042371;28;20037;-68
2022/04/09 02:53:30;;;;;;;4.80;1.70;;;4.60;91.70;;;;;;5043542;28;20786;-68
2022/04/09 02:55:58;;;;;;;5.60;1.90;;;4.60;91.60;;;;;;5042528;28;20167;-69
2022/04/09 02:58:24;;;;;;;4.97;2.03;;;4.50;91.80;;;;;;5043403;28;20653;-68
2022/04/09 03:00:50;;;;;;;2.80;1.70;;;4.50;91.80;;;;;;5039932;28;20043;-68
2022/04/09 03:03:19;;;;;;;5.13;1.80;;;4.50;91.90;;;;;;5037994;28;20036;-68
2022/04/09 03:05:47;;;;;;;6.45;2.00;;;4.50;91.90;;;;;;5042095;28;20039;-68
2022/04/09 03:08:13;;;;;;;5.03;2.03;;;4.50;91.90;;;;;;5042667;28;20722;-68
2022/04/09 03:10:39;;;;;;;4.78;2.45;;;4.50;92.10;;;;;;5042662;28;20039;-68
2022/04/09 03:13:05;;;;;;;5.18;1.98;;;4.40;92.20;;;;;;5060484;28;20032;-70
2022/04/09 03:15:31;;;;;;;4.95;2.25;;;4.40;92.20;;;;;;5041220;28;20043;-68
2022/04/09 03:17:57;;;;;;;6.68;2.00;;;4.40;92.20;;;;;;5041459;28;20056;-69
2022/04/09 03:20:25;;;;;;;4.88;2.17;;;4.30;92.30;;;;;;5040567;28;20029;-68
2022/04/09 03:22:51;;;;;;;6.88;2.55;;;4.30;92.30;;;;;;5042763;28;20062;-68
2022/04/09 03:25:28;;;;;;;4.57;2.20;;;4.30;92.50;;;;;;5041431;28;20020;-68
2022/04/09 03:27:56;;;;;;;4.80;2.30;;;4.20;92.70;;;;;;5061153;28;20032;-68
2022/04/09 03:30:21;;;;;;;7.38;2.00;;;4.20;92.80;;;;;;5039957;28;20032;-69
2022/04/09 03:32:49;;;;;;;8.90;2.30;;;4.20;92.80;;;;;;5036786;28;20035;-68
2022/04/09 03:35:20;;;;;;;3.38;1.95;;;4.20;92.70;;;;;;5033001;28;20029;-68
2022/04/09 03:37:47;;;;;;;11.93;2.33;;;4.10;92.70;;;;;;5058723;28;20063;-69
2022/04/09 03:40:17;;;;;;;4.43;2.28;;;4.10;92.90;;;;;;5039882;28;20032;-67
2022/04/09 03:42:44;;;;;;;7.82;3.90;;;4.10;93.00;;;;;;5041764;28;20090;-70
2022/04/09 03:45:10;;;;;;;3.95;2.50;;;4.10;92.90;;;;;;5040514;28;20087;-66
2022/04/09 03:47:36;;;;;;;7.80;2.63;;;4.10;92.90;;;;;;5038509;28;20960;-68
2022/04/09 03:50:07;;;;;;;9.07;2.80;;;4.10;93.00;;;;;;5042939;28;20355;-68
2022/04/09 03:52:33;;;;;;;6.57;2.40;;;4.00;93.10;;;;;;5058606;28;20109;-68
2022/04/09 03:54:59;;;;;;;4.20;2.20;;;4.00;93.40;;;;;;5038070;28;20072;-68
2022/04/09 03:57:26;;;;;;;8.57;2.42;;;4.00;93.40;;;;;;5038355;28;20877;-68
2022/04/09 03:59:55;;;;;;;9.38;2.15;;;4.00;93.50;;;;;;5044293;28;20024;-68
2022/04/09 04:02:22;;;;;;;5.72;2.38;;;4.00;93.50;;;;;;5041181;28;20139;-68
2022/04/09 04:04:51;;;;;;;5.03;2.15;;;3.90;93.50;;;;;;5043075;28;20122;-68
2022/04/09 04:07:22;;;;;;;10.85;2.90;;;3.90;93.70;;;;;;5040093;28;20419;-67
2022/04/09 04:09:49;;;;;;;7.90;2.90;;;3.90;93.80;;;;;;5037302;28;20086;-68
2022/04/09 04:12:15;;;;;;;4.22;2.03;;;3.90;93.90;;;;;;5038905;28;20040;-68
2022/04/09 04:14:42;;;;;;;9.23;2.33;;;3.90;93.90;;;;;;5031038;28;20081;-68
2022/04/09 04:17:08;;;;;;;8.57;2.25;;;3.90;94.00;;;;;;5060043;28;20070;-68
2022/04/09 04:19:36;;;;;;;4.95;2.72;;;3.90;94.00;;;;;;5041655;28;20033;-68
2022/04/09 04:22:03;;;;;;;6.20;2.22;;;3.90;94.00;;;;;;5040115;28;20040;-68
2022/04/09 04:24:31;;;;;;;7.50;2.70;;;3.90;94.00;;;;;;5041914;28;20120;-68
2022/04/09 04:26:56;;;;;;;5.63;1.83;;;3.90;93.90;;;;;;5038092;28;20139;-69
2022/04/09 04:29:24;;;;;;;4.85;2.28;;;4.00;93.90;;;;;;5039602;28;20148;-68
2022/04/09 04:31:51;;;;;;;8.40;2.72;;;4.00;93.80;;;;;;5041190;28;20028;-68
2022/04/09 04:34:17;;;;;;;4.70;2.22;;;4.00;93.80;;;;;;5037934;28;20029;-68
2022/04/09 04:36:44;;;;;;;9.95;2.47;;;4.00;93.80;;;;;;5038326;28;20146;-68
2022/04/09 04:39:12;;;;;;;9.00;2.05;;;4.00;93.70;;;;;;5038674;28;20033;-68
2022/04/09 04:41:38;;;;;;;5.93;2.33;;;4.10;93.70;;;;;;5039469;28;20025;-68
2022/04/09 04:44:05;;;;;;;5.57;1.80;;;4.10;93.60;;;;;;5040615;28;20452;-68
2022/04/09 04:46:39;;;;;;;3.55;1.77;;;4.10;93.50;;;;;;5043178;28;20024;-68
2022/04/09 04:49:07;;;;;;;7.20;2.15;;;4.20;93.40;;;;;;5039532;28;20028;-68
2022/04/09 04:51:34;;;;;;;5.47;1.90;;;4.20;93.40;;;;;;5036200;28;20036;-68
2022/04/09 04:54:03;;;;;;;13.82;2.17;;;4.30;93.30;;;;;;5039393;28;20082;-68
2022/04/09 04:56:29;;;;;;;8.07;2.70;;;4.40;93.10;;;;;;5043087;28;20106;-68
2022/04/09 04:58:58;;;;;;;5.20;1.90;;;4.60;93.00;;;;;;5044874;28;20017;-68
2022/04/09 05:01:26;;;;;;;3.00;1.90;;;4.60;92.70;;;;;;5044985;28;20017;-68
2022/04/09 05:03:58;;;;;;;4.72;1.70;;;4.70;92.50;;;;;;5042522;28;20027;-68
2022/04/09 05:06:27;;;;;;;4.68;2.10;;;4.70;92.30;;;;;;5042835;28;20111;-69
2022/04/09 05:08:54;;;;;;;6.45;2.10;;;4.80;92.10;;;;;;5046418;28;20035;-68
2022/04/09 05:11:37;;;;;;;4.82;2.17;;;4.80;91.90;;;;;;5045760;28;20102;-68
2022/04/09 05:14:07;;;;;;;5.13;1.70;;;4.90;91.90;;;;;;5043705;28;20024;-68
2022/04/09 05:16:37;;;;;;;4.65;2.08;;;4.90;91.80;;;;;;5039009;28;20116;-68
2022/04/09 05:19:06;;;;;;;6.00;1.90;;;5.10;91.60;;;;;;5044323;28;20081;-68
2022/04/09 05:21:33;;;;;;;10.75;2.45;;;5.20;91.30;;;;;;5045844;28;20253;-68
2022/04/09 05:24:00;;;;;;;6.60;1.73;;;5.30;91.00;;;;;;5043137;28;20112;-67
2022/04/09 05:26:26;;;;;;;1.90;1.60;;;5.30;90.90;;;;;;5043173;28;20027;-68
2022/04/09 05:28:55;;;;;;;4.95;1.65;;;5.40;90.80;;;;;;5039820;28;20086;-69
2022/04/09 05:31:27;;;;;;;5.05;1.70;;;5.40;90.70;;;;;;5044437;28;20028;-68
2022/04/09 05:33:56;;;;;;;1.95;1.40;;;5.50;90.60;;;;;;5043833;28;20035;-68
2022/04/09 05:36:23;;;;;;;4.50;1.83;;;5.60;90.30;;;;;;5045324;28;20048;-68
2022/04/09 05:38:52;;;;;;;5.05;2.50;;;5.60;90.30;;;;;;5044382;28;20021;-68
2022/04/09 05:41:18;;;;;;;4.20;1.80;;;5.60;90.20;;;;;;5039935;28;20099;-68
2022/04/09 05:43:44;;;;;;;5.90;1.77;;;5.70;90.30;;;;;;5041020;28;20346;-68
2022/04/09 05:46:10;;;;;;;5.20;1.80;;;5.80;90.00;;;;;;5039801;28;20497;-68
2022/04/09 05:48:36;;;;;;;7.65;2.78;;;6.00;89.50;;;;;;5042823;28;20024;-70
2022/04/09 05:51:02;;;;;;;5.53;1.95;;;6.00;88.60;;;;;;5048798;28;20528;-68
2022/04/09 05:53:32;;;;;;;8.80;2.28;;;6.00;88.20;;;;;;5062535;28;20066;-68
2022/04/09 05:56:01;;;;;;;4.05;2.08;;;6.10;88.70;;;;;;5041626;28;20042;-68
2022/04/09 05:58:32;;;;;;;7.60;2.22;;;6.20;88.00;;;;;;5045290;28;20035;-68
2022/04/09 06:01:01;;;;;;;3.72;1.88;;;6.60;87.50;;;;;;5040323;28;20025;-68
2022/04/09 06:03:33;;;;;;;6.10;2.38;;;6.90;85.50;;;;;;5043671;28;20032;-68
2022/04/09 06:05:59;;;;;;;6.80;1.70;;;7.10;85.00;;;;;;5040651;28;20027;-68
2022/04/09 06:08:35;;;;;;;9.15;2.17;;;7.40;85.10;;;;;;5044765;28;20506;-68
2022/04/09 06:11:10;;;;;;;4.82;2.35;;;9.40;79.90;;;;;;5040829;28;20128;-68
2022/04/09 06:13:39;;;;;;;6.70;1.85;;;10.00;71.80;;;;;;5043837;28;20416;-68
2022/04/09 06:16:08;;;;;;;5.85;1.70;;;9.70;71.50;;;;;;5040392;28;20382;-68
2022/04/09 06:18:38;;;;;;;7.32;1.73;;;9.40;72.70;;;;;;5048637;28;20065;-68
2022/04/09 06:21:08;;;;;;;11.02;2.78;;;10.40;70.50;;;;;;5042571;28;20035;-66
2022/04/09 06:23:34;;;;;;;8.82;1.85;;;11.40;68.00;;;;;;5062407;28;20036;-68
2022/04/09 06:26:00;;;;;;;5.80;1.83;;;13.00;61.60;;;;;;5038096;28;20025;-69
2022/04/09 06:28:31;;;;;;;7.53;1.50;;;13.50;59.30;;;;;;5040686;28;20031;-68
2022/04/09 06:30:58;;;;;;;3.35;1.70;;;14.20;56.60;;;;;;5041108;28;20912;-66
2022/04/09 06:33:26;;;;;;;6.72;1.98;;;14.00;55.10;;;;;;5044370;28;20024;-66
2022/04/09 06:35:54;;;;;;;6.55;1.58;;;14.70;53.70;;;;;;5026990;28;20036;-67
2022/04/09 06:38:22;;;;;;;7.45;1.77;;;15.30;52.30;;;;;;5042869;28;20017;-67
2022/04/09 06:40:49;;;;;;;4.65;1.50;;;15.80;50.50;;;;;;5041490;28;20035;-66
2022/04/09 06:43:20;;;;;;;7.47;1.90;;;16.90;48.00;;;;;;5055426;28;20135;-67
2022/04/09 06:46:03;;;;;;;8.07;2.30;;;16.60;46.80;;;;;;5053853;28;20106;-67
2022/04/09 06:48:38;;;;;;;6.45;1.88;;;16.40;47.80;;;;;;5054885;28;20060;-66
2022/04/09 06:51:26;;;;;;;5.85;1.80;;;16.10;48.20;;;;;;5059041;28;20075;-66
2022/04/09 06:53:58;;;;;;;4.53;1.70;;;15.10;50.20;;;;;;5042191;28;20086;-67
2022/04/09 06:56:24;;;;;;;8.52;1.70;;;14.10;52.50;;;;;;5039824;28;20116;-66
2022/04/09 06:58:50;;;;;;;8.45;2.50;;;13.20;54.90;;;;;;5034241;28;20733;-67
2022/04/09 07:01:17;;;;;;;5.85;2.20;;;12.50;57.10;;;;;;5054425;28;20132;-67
2022/04/09 07:03:44;;;;;;;6.75;2.33;;;11.90;58.60;;;;;;5034061;28;20025;-67
2022/04/09 07:06:10;;;;;;;6.70;2.05;;;11.80;59.90;;;;;;5059309;28;20777;-67
2022/04/09 07:08:36;;;;;;;11.73;2.95;;;11.50;60.30;;;;;;5060163;28;20035;-67
2022/04/09 07:11:01;;;;;;;6.35;3.25;;;11.30;61.10;;;;;;5062070;28;20036;-67
2022/04/09 07:13:28;;;;;;;9.88;3.85;;;11.10;62.00;;;;;;5058544;28;20036;-66
2022/04/09 07:15:55;;;;;;;5.30;2.28;;;11.70;61.00;;;;;;5058044;28;20068;-68
2022/04/09 07:18:20;;;;;;;7.07;2.25;;;12.20;58.80;;;;;;5059843;28;20039;-66
2022/04/09 07:20:46;;;;;;;9.57;2.92;;;12.70;59.20;;;;;;5060014;28;20452;-66
2022/04/09 07:23:12;;;;;;;4.70;2.15;;;14.40;54.40;;;;;;5058435;28;20029;-67
2022/04/09 07:25:38;;;;;;;5.03;2.40;;;14.90;53.30;;;;;;5058017;28;20598;-67
2022/04/09 07:28:04;;;;;;;5.10;1.80;;;15.30;50.60;;;;;;5058620;28;20241;-67
2022/04/09 07:30:30;;;;;;;9.70;1.85;;;14.60;51.00;;;;;;5058321;28;20542;-68
2022/04/09 07:32:58;;;;;;;9.30;2.00;;;13.70;53.00;;;;;;5061633;28;20029;-67
2022/04/09 07:35:25;;;;;;;8.23;1.98;;;12.80;55.30;;;;;;5057765;28;20090;-68
2022/04/09 07:37:58;;;;;;;7.07;1.83;;;12.10;57.00;;;;;;5061543;28;20029;-67
2022/04/09 07:40:25;;;;;;;3.25;1.80;;;11.50;59.90;;;;;;5061102;28;20027;-68
2022/04/09 07:42:51;;;;;;;7.55;2.47;;;11.10;61.50;;;;;;5059073;28;20067;-69
2022/04/09 07:45:18;;;;;;;7.45;2.08;;;11.20;61.20;;;;;;5056737;28;20575;-67
2022/04/09 07:47:45;;;;;;;4.07;1.70;;;12.00;59.60;;;;;;5058570;28;20978;-68
2022/04/09 07:50:12;;;;;;;7.30;2.38;;;12.10;58.00;;;;;;5058523;28;20125;-68
2022/04/09 07:52:40;;;;;;;8.10;2.28;;;12.00;57.60;;;;;;5057492;28;20612;-68
2022/04/09 07:55:11;;;;;;;4.82;1.80;;;11.90;58.40;;;;;;5055408;28;20063;-68
2022/04/09 07:57:38;;;;;;;10.65;3.40;;;12.10;57.80;;;;;;5058567;28;20032;-68
2022/04/09 08:00:04;;;;;;;5.05;2.80;;;12.60;56.80;;;;;;5057972;28;20036;-66
2022/04/09 08:02:37;;;;;;;8.07;2.78;;;13.70;54.50;;;;;;5057010;28;20062;-67
2022/04/09 08:05:03;;;;;;;5.47;2.40;;;16.70;46.60;;;;;;5056157;28;20024;-66
2022/04/09 08:07:29;;;;;;;6.50;1.33;;;18.00;43.50;;;;;;5058912;28;20032;-68
2022/04/09 08:09:55;;;;;;;3.72;1.35;;;19.20;40.60;;;;;;5058200;28;20039;-68
2022/04/09 08:12:21;;;;;;;7.45;2.20;;;20.20;38.10;;;;;;5059951;28;20044;-67
2022/04/09 08:14:47;;;;;;;5.05;1.50;;;21.20;35.70;;;;;;5057027;28;20069;-67
2022/04/09 08:17:13;;;;;;;6.07;1.85;;;20.70;36.40;;;;;;5053980;28;20028;-68
2022/04/09 08:19:39;;;;;;;3.97;1.35;;;20.90;36.40;;;;;;5056079;28;20547;-67
2022/04/09 08:22:06;;;;;;;4.95;1.55;;;19.60;36.70;;;;;;5057184;28;20040;-65
2022/04/09 08:24:32;;;;;;;6.22;1.45;;;18.50;39.20;;;;;;5059409;28;20052;-67
2022/04/09 08:26:58;;;;;;;2.50;1.02;;;18.90;39.90;;;;;;5059393;28;20020;-67
2022/04/09 08:29:24;;;;;;;3.38;1.15;;;22.90;34.10;;;;;;5060053;28;20031;-67
2022/04/09 08:31:50;;;;;;;7.20;2.05;;;23.70;30.80;;;;;;5057298;28;20115;-67
2022/04/09 08:34:18;;;;;;;7.18;1.45;;;21.50;33.10;;;;;;5051419;28;20035;-67
2022/04/09 08:36:45;;;;;;;5.15;1.40;;;19.70;36.70;;;;;;5057836;28;20032;-67
2022/04/09 08:39:11;;;;;;;6.65;1.90;;;18.80;39.80;;;;;;5057142;28;20785;-67
2022/04/09 08:41:42;;;;;;;10.07;2.35;;;18.80;38.80;;;;;;5057289;28;20058;-67
2022/04/09 08:44:08;;;;;;;7.55;3.05;;;18.40;37.50;;;;;;5056777;28;20055;-66
2022/04/09 08:46:35;;;;;;;6.10;2.28;;;17.70;40.30;;;;;;5059461;28;20072;-66
2022/04/09 08:49:05;;;;;;;6.03;1.55;;;17.20;41.30;;;;;;5059512;28;20493;-67
2022/04/09 08:51:32;;;;;;;7.45;2.58;;;18.70;38.80;;;;;;5054709;28;20027;-66
2022/04/09 08:54:02;;;;;;;6.22;1.90;;;18.40;37.80;;;;;;5057307;28;20052;-68
2022/04/09 08:56:29;;;;;;;7.00;1.73;;;17.20;40.00;;;;;;5058565;28;20035;-66
2022/04/09 08:58:58;;;;;;;5.43;2.15;;;17.40;41.20;;;;;;5058355;28;20046;-66
2022/04/09 09:01:25;;;;;;;8.15;2.38;;;20.90;35.50;;;;;;5057996;28;20035;-67
2022/04/09 09:03:51;;;;;;;6.60;1.50;;;25.20;29.20;;;;;;5055399;28;20035;-67
2022/04/09 09:06:30;;;;;;;8.45;1.83;;;28.90;26.20;;;;;;5055371;28;20064;-67
2022/04/09 09:08:57;;;;;;;8.38;1.92;;;31.00;24.80;;;;;;5055266;28;20032;-67
2022/04/09 09:11:24;;;;;;;6.00;1.58;;;31.20;25.10;;;;;;5055926;28;20635;-67
2022/04/09 09:13:52;;;;;;;5.05;1.48;;;30.80;24.90;;;;;;5058061;28;20029;-67
2022/04/09 09:16:31;;;;;;;5.85;1.63;;;29.20;25.60;;;;;;5059102;28;20166;-67
2022/04/09 09:19:01;;;;;;;6.20;1.55;;;29.50;25.40;;;;;;5058385;28;20028;-68
2022/04/09 09:21:27;;;;;;;8.90;1.98;;;30.50;24.40;;;;;;5057653;28;20094;-67
2022/04/09 09:24:15;;;;;;;3.47;1.40;;;28.70;24.80;;;;;;5059135;28;20032;-67
2022/04/09 09:26:42;;;;;;;6.25;1.65;;;26.30;26.30;;;;;;5057367;28;20032;-67
2022/04/09 09:29:09;;;;;;;4.55;1.52;;;25.50;27.80;;;;;;5038298;28;20436;-67
2022/04/09 09:31:45;;;;;;;7.15;2.30;;;24.90;28.20;;;;;;5059430;28;20024;-67
2022/04/09 09:34:16;;;;;;;5.35;1.40;;;25.70;27.30;;;;;;5052260;28;20078;-67
2022/04/09 09:36:46;;;;;;;7.70;1.70;;;25.80;28.20;;;;;;5056457;28;20492;-67
2022/04/09 09:39:14;;;;;;;7.22;1.98;;;28.20;26.50;;;;;;5055539;28;20032;-67
2022/04/09 09:41:59;;;;;;;5.25;1.58;;;26.70;26.10;;;;;;5058589;28;20031;-67
2022/04/09 09:44:27;;;;;;;7.03;2.15;;;23.90;28.60;;;;;;5057279;28;20039;-66
2022/04/09 09:46:54;;;;;;;7.60;2.90;;;23.00;29.70;;;;;;5058891;28;20025;-67
2022/04/09 09:49:24;;;;;;;7.05;2.83;;;24.00;29.30;;;;;;5056801;28;20037;-67
2022/04/09 09:52:28;;;;;;;5.00;1.30;;;26.30;26.20;;;;;;5056906;28;20024;-66
2022/04/09 09:55:04;;;;;;;4.60;1.17;;;25.70;28.40;;;;;;5019131;28;20052;-66
2022/04/09 09:57:31;;;;;;;4.45;1.60;;;24.80;27.80;;;;;;5058743;28;20083;-66
2022/04/09 10:00:01;;;;;;;3.65;1.27;;;24.00;27.50;;;;;;5060345;28;20035;-67
2022/04/09 10:02:32;;;;;;;3.22;1.55;;;23.00;29.40;;;;;;5058717;28;20040;-68
2022/04/09 10:04:58;;;;;;;5.35;0.88;;;21.70;29.80;;;;;;5059262;28;20024;-66
2022/04/09 10:07:25;;;;;;;4.78;1.20;;;23.50;28.00;;;;;;5053385;28;20060;-66
2022/04/09 10:09:53;;;;;;;5.72;1.17;;;23.40;27.70;;;;;;5060525;28;20063;-66
2022/04/09 10:12:23;;;;;;;3.55;1.02;;;22.20;29.30;;;;;;5058463;28;20109;-66
2022/04/09 10:14:57;;;;;;;4.05;0.90;;;20.70;30.00;;;;;;5061057;28;20825;-67
2022/04/09 10:17:24;;;;;;;4.65;1.05;;;19.70;32.90;;;;;;5060191;28;20047;-66
2022/04/09 10:19:55;;;;;;;2.03;1.10;;;19.40;32.20;;;;;;5044088;28;20033;-67
2022/04/09 10:22:23;;;;;;;3.05;0.90;;;18.60;34.10;;;;;;5061284;28;20042;-66
2022/04/09 10:24:51;;;;;;;2.35;0.75;;;18.40;34.00;;;;;;5059102;28;20024;-66
2022/04/09 10:27:44;;;;;;;2.72;0.82;;;17.70;35.30;;;;;;5058822;28;20060;-66
2022/04/09 10:30:19;;;;;;;6.13;1.50;;;16.90;37.00;;;;;;5059909;28;20360;-66
2022/04/09 10:32:54;;;;;;;4.88;1.08;;;16.50;38.70;;;;;;5061237;28;20040;-67
2022/04/09 10:35:29;;;;;;;6.05;2.20;;;18.60;36.40;;;;;;5059066;28;20783;-67
2022/04/09 10:38:07;;;;;;;2.75;1.40;;;19.40;35.10;;;;;;5059069;28;20032;-67
2022/04/09 10:40:36;;;;;;;2.53;1.23;;;20.30;34.40;;;;;;5059886;28;20058;-67
2022/04/09 10:43:04;;;;;;;4.38;1.83;;;21.00;31.50;;;;;;5059516;28;20032;-67
2022/04/09 10:45:32;;;;;;;1.95;0.88;;;21.80;30.60;;;;;;5058727;28;20488;-67
2022/04/09 10:48:14;;;;;;;3.72;0.75;;;24.00;28.40;;;;;;5060616;28;20031;-67
2022/04/09 10:50:59;;;;;;;2.55;0.80;;;24.00;28.10;;;;;;5061476;28;20108;-66
2022/04/09 10:53:39;;;;;;;3.50;0.95;;;24.40;29.00;;;;;;5057363;28;20037;-66
2022/04/09 10:56:24;;;;;;;3.95;1.73;;;24.60;27.40;;;;;;5055726;28;20032;-66
2022/04/09 10:59:02;;;;;;;2.67;0.90;;;22.60;28.60;;;;;;5060078;28;20060;-67
2022/04/09 11:01:46;;;;;;;3.08;1.00;;;23.30;29.00;;;;;;5061059;28;20032;-66
2022/04/09 11:04:27;;;;;;;3.33;1.10;;;26.90;26.20;;;;;;5056543;28;20539;-66
2022/04/09 11:07:16;;;;;;;5.55;1.50;;;26.20;25.80;;;;;;5061623;28;20032;-67
2022/04/09 11:09:43;;;;;;;2.10;1.00;;;24.10;28.00;;;;;;5058636;28;20035;-66
2022/04/09 11:12:08;;;;;;;2.22;1.05;;;23.10;29.50;;;;;;5057275;28;20552;-67
2022/04/09 11:15:04;;;;;;;3.85;1.17;;;21.40;32.60;;;;;;5058863;28;20038;-67
2022/04/09 11:17:38;;;;;;;4.97;1.23;;;20.00;33.60;;;;;;5041479;28;20040;-67
2022/04/09 11:20:10;;;;;;;3.78;1.13;;;18.30;35.10;;;;;;5060607;28;20039;-66
2022/04/09 11:22:56;;;;;;;5.03;1.13;;;17.70;38.60;;;;;;5061448;28;20116;-67
2022/04/09 11:25:32;;;;;;;2.67;0.88;;;17.80;39.30;;;;;;5052104;28;20328;-67
2022/04/09 11:28:04;;;;;;;6.40;0.90;;;18.10;39.80;;;;;;5058233;28;20458;-66
2022/04/09 11:30:30;;;;;;;4.95;1.10;;;18.10;38.20;;;;;;5056445;28;20024;-66
2022/04/09 11:32:56;;;;;;;5.43;1.20;;;18.30;37.90;;;;;;5059401;28;20492;-66
2022/04/09 11:35:24;;;;;;;4.28;1.20;;;18.40;37.60;;;;;;5059697;28;20044;-66
2022/04/09 11:37:51;;;;;;;5.28;1.42;;;18.40;38.00;;;;;;5060717;28;20844;-67
2022/04/09 11:40:18;;;;;;;3.60;0.90;;;18.20;38.10;;;;;;5054559;28;20029;-66
2022/04/09 11:42:49;;;;;;;3.03;0.90;;;18.10;38.00;;;;;;5057193;28;20032;-66
2022/04/09 11:45:29;;;;;;;3.75;1.00;;;17.90;38.50;;;;;;5052127;28;20528;-66
2022/04/09 11:48:00;;;;;;;4.22;1.00;;;17.40;38.80;;;;;;5057603;28;20028;-66
2022/04/09 11:50:31;;;;;;;4.68;1.08;;;16.90;37.90;;;;;;5059066;28;20362;-66
2022/04/09 11:53:07;;;;;;;3.10;1.00;;;16.30;40.20;;;;;;5059624;28;20455;-66
2022/04/09 11:55:33;;;;;;;3.75;0.95;;;16.00;41.50;;;;;;5058473;28;20074;-66
2022/04/09 11:57:59;;;;;;;10.95;3.00;;;16.20;42.30;;;;;;5060617;28;20036;-66
2022/04/09 12:00:27;;;;;;;9.57;2.15;;;16.10;41.50;;;;;;5056408;28;20227;-66
2022/04/09 12:02:53;;;;;;;4.82;1.13;;;16.20;41.80;;;;;;5056597;28;20059;-66
2022/04/09 12:05:19;;;;;;;2.78;0.75;;;16.40;42.00;;;;;;5055253;28;20036;-66
2022/04/09 12:07:46;;;;;;;2.03;0.88;;;16.70;41.00;;;;;;5061562;28;20031;-66
2022/04/09 12:10:25;;;;;;;4.50;0.98;;;16.60;39.30;;;;;;5059417;28;20035;-66
2022/04/09 12:12:56;;;;;;;1.90;0.50;;;16.30;40.60;;;;;;5059610;28;20040;-67
2022/04/09 12:15:33;;;;;;;2.85;1.15;;;16.10;41.50;;;;;;5059514;28;20135;-68
2022/04/09 12:18:06;;;;;;;1.77;0.55;;;16.20;43.80;;;;;;5056796;28;20154;-67
2022/04/09 12:20:37;;;;;;;3.35;1.10;;;15.90;44.50;;;;;;5056160;28;20055;-67
2022/04/09 12:23:05;;;;;;;1.38;0.68;;;15.00;47.30;;;;;;5057009;28;20110;-67
2022/04/09 12:25:38;;;;;;;2.30;0.68;;;14.30;49.80;;;;;;5059705;28;20032;-68
2022/04/09 12:28:05;;;;;;;2.00;0.73;;;13.60;51.60;;;;;;5060542;28;20043;-67
2022/04/09 12:30:42;;;;;;;3.35;0.77;;;13.30;53.80;;;;;;5060942;28;20036;-67
2022/04/09 12:33:12;;;;;;;5.38;1.33;;;13.40;54.10;;;;;;5059368;28;20042;-67
2022/04/09 12:35:39;;;;;;;2.65;0.80;;;13.40;53.50;;;;;;5057605;28;20028;-67
2022/04/09 12:38:05;;;;;;;3.92;0.82;;;13.60;52.80;;;;;;5057100;28;20028;-66
2022/04/09 12:40:32;;;;;;;1.42;0.70;;;13.80;52.00;;;;;;5057101;28;20064;-66
2022/04/09 12:43:02;;;;;;;3.17;0.70;;;13.90;49.70;;;;;;5054511;28;20086;-67
2022/04/09 12:45:28;;;;;;;3.85;0.80;;;14.10;50.80;;;;;;5057011;28;20051;-67
2022/04/09 12:47:58;;;;;;;3.33;0.70;;;14.30;48.80;;;;;;5057324;28;20035;-67
2022/04/09 12:50:30;;;;;;;2.33;0.70;;;14.50;49.10;;;;;;5059637;28;20408;-65
2022/04/09 12:53:00;;;;;;;3.58;1.83;;;14.50;48.00;;;;;;5058513;28;20150;-65
2022/04/09 12:55:27;;;;;;;3.17;0.80;;;14.40;49.20;;;;;;5059462;28;20028;-65
2022/04/09 12:57:54;;;;;;;2.63;1.08;;;14.00;49.40;;;;;;5056552;28;20032;-65
2022/04/09 13:00:22;;;;;;;2.85;0.90;;;13.60;50.80;;;;;;5056471;28;20028;-65